createdAt,value
2019-03-11T00:01:50.187Z,4.95
2019-03-11T00:04:20.766Z,5.17
2019-03-11T00:06:53.516Z,4.92
2019-03-11T00:09:23.332Z,5.47
2019-03-11T00:14:24.320Z,4.10
2019-03-11T00:16:54.034Z,4.70
2019-03-11T00:19:23.810Z,6.72
2019-03-11T00:21:53.538Z,5.53
2019-03-11T00:24:23.338Z,4.15
2019-03-11T00:26:54.622Z,4.75
2019-03-11T00:29:24.967Z,4.45
2019-03-11T00:34:29.242Z,5.37
2019-03-11T00:36:59.810Z,3.58
2019-03-11T00:39:30.278Z,4.10
2019-03-11T00:42:00.740Z,4.22
2019-03-11T00:44:31.223Z,5.65
2019-03-11T00:47:01.689Z,4.95
2019-03-11T00:49:32.062Z,4.95
2019-03-11T00:54:42.416Z,3.37
2019-03-11T00:57:12.696Z,5.97
2019-03-11T00:59:43.252Z,2.77
2019-03-11T01:02:13.541Z,4.42
2019-03-11T01:04:43.851Z,3.98
2019-03-11T01:07:14.178Z,4.10
2019-03-11T01:09:44.528Z,3.77
2019-03-11T01:12:14.929Z,4.10
2019-03-11T01:14:46.528Z,3.72
2019-03-11T01:17:16.907Z,3.75
2019-03-11T01:22:41.892Z,3.30
2019-03-11T01:25:12.262Z,3.33
2019-03-11T01:27:42.690Z,4.10
2019-03-11T01:30:13.350Z,4.62
2019-03-11T01:32:43.807Z,4.17
2019-03-11T01:35:14.053Z,2.67
2019-03-11T01:37:44.524Z,3.62
2019-03-11T01:40:15.033Z,3.90
2019-03-11T01:42:46.472Z,3.47
2019-03-11T01:45:16.947Z,3.55
2019-03-11T01:47:50.935Z,3.02
2019-03-11T01:50:21.247Z,4.05
2019-03-11T01:52:51.357Z,5.22
2019-03-11T01:55:21.637Z,3.92
2019-03-11T01:57:52.098Z,4.20
2019-03-11T02:02:54.954Z,3.60
2019-03-11T02:05:25.440Z,2.60
2019-03-11T02:07:55.803Z,3.20
2019-03-11T02:10:26.279Z,3.40
2019-03-11T02:12:56.667Z,2.47
2019-03-11T02:15:28.519Z,2.67
2019-03-11T02:17:55.464Z,3.80
2019-03-11T02:20:25.863Z,2.90
2019-03-11T02:25:57.620Z,3.62
2019-03-11T02:28:28.071Z,3.00
2019-03-11T02:30:58.526Z,2.58
2019-03-11T02:33:40.319Z,3.92
2019-03-11T02:36:30.073Z,3.27
2019-03-11T02:39:00.524Z,4.03
2019-03-11T02:41:32.639Z,4.62
2019-03-11T02:46:36.196Z,3.27
2019-03-11T02:49:06.525Z,2.50
2019-03-11T02:51:36.965Z,2.75
2019-03-11T02:54:07.317Z,2.58
2019-03-11T02:59:11.656Z,2.25
2019-03-11T03:01:59.421Z,3.47
2019-03-11T03:04:47.808Z,2.83
2019-03-11T03:07:18.155Z,4.28
2019-03-11T03:09:48.475Z,3.17
2019-03-11T03:12:18.837Z,2.52
2019-03-11T03:14:49.204Z,3.67
2019-03-11T03:17:19.584Z,3.25
2019-03-11T03:19:52.980Z,3.00
2019-03-11T03:22:23.466Z,2.40
2019-03-11T03:24:53.780Z,2.20
2019-03-11T03:27:24.292Z,3.27
2019-03-11T03:29:54.354Z,3.25
2019-03-11T03:32:24.801Z,2.60
2019-03-11T03:34:55.153Z,4.28
2019-03-11T03:37:25.576Z,2.20
2019-03-11T03:39:55.863Z,4.42
2019-03-11T03:42:29.559Z,1.92
2019-03-11T03:45:21.890Z,3.80
2019-03-11T03:47:59.008Z,3.15
2019-03-11T03:50:30.771Z,2.90
2019-03-11T03:53:01.212Z,2.20
2019-03-11T03:55:30.980Z,2.55
2019-03-11T03:58:00.056Z,3.27
2019-03-11T04:00:30.431Z,2.55
2019-03-11T04:03:00.855Z,3.42
2019-03-11T04:05:31.181Z,2.33
2019-03-11T04:08:01.618Z,3.15
2019-03-11T04:13:06.135Z,3.25
2019-03-11T04:18:08.652Z,2.15
2019-03-11T04:20:39.077Z,3.00
2019-03-11T04:23:09.381Z,3.55
2019-03-11T04:25:39.774Z,3.58
2019-03-11T04:28:12.874Z,3.10
2019-03-11T04:30:42.858Z,3.27
2019-03-11T04:33:13.260Z,2.10
2019-03-11T04:35:45.250Z,2.62
2019-03-11T04:38:15.574Z,4.30
2019-03-11T04:43:26.901Z,3.55
2019-03-11T04:45:56.189Z,3.42
2019-03-11T04:48:26.268Z,2.27
2019-03-11T04:50:57.457Z,3.37
2019-03-11T04:53:28.474Z,3.95
2019-03-11T04:55:59.185Z,3.52
2019-03-11T04:58:36.647Z,3.85
2019-03-11T05:01:07.010Z,2.60
2019-03-11T05:03:37.426Z,2.25
2019-03-11T05:11:18.296Z,3.87
2019-03-11T05:16:21.263Z,2.65
2019-03-11T05:21:36.865Z,2.83
2019-03-11T05:24:02.786Z,3.70
2019-03-11T05:26:33.181Z,3.00
2019-03-11T05:29:03.531Z,2.75
2019-03-11T05:31:33.957Z,5.22
2019-03-11T05:34:07.085Z,3.30
2019-03-11T05:36:40.986Z,4.40
2019-03-11T05:39:11.416Z,4.22
2019-03-11T05:42:00.970Z,2.72
2019-03-11T05:44:37.057Z,2.85
2019-03-11T05:47:07.280Z,3.08
2019-03-11T05:49:37.572Z,2.87
2019-03-11T05:52:07.889Z,3.02
2019-03-11T05:54:38.278Z,3.02
2019-03-11T05:57:08.691Z,3.27
2019-03-11T05:59:39.119Z,4.17
2019-03-11T06:02:09.448Z,2.95
2019-03-11T06:04:39.903Z,3.10
2019-03-11T06:07:10.227Z,3.92
2019-03-11T06:09:40.622Z,2.65
2019-03-11T06:12:11.060Z,4.40
2019-03-11T06:14:41.435Z,3.75
2019-03-11T06:19:40.265Z,2.55
2019-03-11T06:22:21.123Z,3.20
2019-03-11T06:24:52.483Z,2.58
2019-03-11T06:27:23.874Z,2.80
2019-03-11T06:29:54.344Z,4.12
2019-03-11T06:34:53.516Z,4.97
2019-03-11T06:37:23.907Z,2.25
2019-03-11T06:39:55.848Z,4.15
2019-03-11T06:42:27.423Z,4.10
2019-03-11T06:44:58.147Z,3.45
2019-03-11T06:47:28.945Z,4.00
2019-03-11T06:49:59.237Z,2.70
2019-03-11T06:52:30.743Z,2.87
2019-03-11T06:55:01.030Z,4.20
2019-03-11T07:00:48.486Z,5.72
2019-03-11T07:03:26.992Z,5.70
2019-03-11T07:08:45.095Z,7.45
2019-03-11T07:14:16.994Z,6.65
2019-03-11T07:16:48.016Z,8.60
2019-03-11T07:24:53.705Z,9.70
2019-03-11T07:27:31.425Z,8.55
2019-03-11T07:33:07.416Z,15.95
2019-03-11T07:38:21.882Z,11.90
2019-03-11T07:46:28.193Z,7.90
2019-03-11T07:52:02.646Z,12.45
2019-03-11T07:57:26.782Z,13.32
2019-03-11T08:00:14.909Z,10.48
2019-03-11T08:02:50.861Z,14.65
2019-03-11T08:05:53.494Z,16.82
2019-03-11T08:11:19.360Z,7.50
2019-03-11T08:19:21.977Z,5.67
2019-03-11T08:34:12.416Z,18.27
2019-03-11T08:45:31.479Z,23.40
2019-03-11T08:48:01.483Z,5.83
2019-03-11T08:50:32.001Z,10.72
2019-03-11T08:53:12.726Z,9.88
2019-03-11T09:07:10.393Z,9.20
2019-03-11T09:12:40.801Z,12.13
2019-03-11T09:15:52.938Z,8.50
2019-03-11T09:18:26.680Z,7.72
2019-03-11T09:21:04.786Z,5.87
2019-03-11T09:24:31.299Z,8.83
2019-03-11T09:35:35.967Z,4.70
2019-03-11T09:44:10.188Z,8.18
2019-03-11T09:50:50.096Z,15.18
2019-03-11T10:03:46.548Z,15.10
2019-03-11T10:06:34.705Z,8.93
2019-03-11T10:09:12.185Z,12.78
2019-03-11T10:11:50.665Z,8.95
2019-03-11T10:14:40.905Z,11.18
2019-03-11T10:20:08.411Z,6.87
2019-03-11T10:28:00.498Z,10.60
2019-03-11T10:33:50.696Z,7.65
2019-03-11T10:36:26.608Z,9.85
2019-03-11T10:47:16.541Z,16.50
2019-03-11T10:49:49.633Z,10.32
2019-03-11T10:52:19.999Z,20.30
2019-03-11T10:54:51.099Z,9.83
2019-03-11T10:57:21.547Z,13.40
2019-03-11T11:02:58.567Z,10.43
2019-03-11T11:05:53.574Z,10.82
2019-03-11T11:11:17.983Z,11.12
2019-03-11T11:13:56.630Z,16.48
2019-03-11T11:39:50.330Z,13.27
2019-03-11T11:42:33.429Z,12.35
2019-03-11T11:45:05.517Z,13.08
2019-03-11T11:47:36.847Z,9.68
2019-03-11T11:50:16.672Z,23.18
2019-03-11T11:55:29.305Z,22.30
2019-03-11T12:03:41.206Z,19.90
2019-03-11T12:06:12.249Z,11.10
2019-03-11T12:08:55.160Z,24.07
2019-03-11T12:11:26.005Z,20.00
2019-03-11T12:14:19.029Z,25.77
2019-03-11T12:16:50.801Z,22.27
2019-03-11T12:22:36.321Z,27.00
2019-03-11T12:25:11.847Z,22.65
2019-03-11T12:27:53.525Z,23.65
2019-03-11T12:33:16.734Z,13.25
2019-03-11T12:35:54.515Z,15.98
2019-03-11T12:38:28.664Z,14.18
2019-03-11T12:40:58.170Z,13.03
2019-03-11T12:43:31.348Z,16.32
2019-03-11T12:46:07.687Z,32.50
2019-03-11T12:48:40.040Z,13.50
2019-03-11T12:51:10.523Z,20.43
2019-03-11T12:58:46.815Z,29.63
2019-03-11T13:01:22.142Z,10.95
2019-03-11T13:03:55.172Z,23.47
2019-03-11T13:06:28.077Z,15.43
2019-03-11T13:08:58.791Z,13.75
2019-03-11T13:11:29.784Z,13.20
2019-03-11T13:14:01.541Z,18.02
2019-03-11T13:16:32.122Z,12.82
2019-03-11T13:19:12.763Z,14.75
2019-03-11T13:21:38.509Z,23.18
2019-03-11T13:24:09.785Z,14.10
2019-03-11T13:26:41.470Z,20.55
2019-03-11T13:29:12.006Z,14.30
2019-03-11T13:31:42.520Z,14.50
2019-03-11T13:34:13.236Z,17.05
2019-03-11T13:36:43.626Z,13.08
2019-03-11T13:39:14.163Z,13.00
2019-03-11T13:44:20.718Z,16.05
2019-03-11T13:47:27.373Z,19.70
2019-03-11T13:52:56.252Z,9.90
2019-03-11T13:55:38.195Z,15.40
2019-03-11T14:04:08.913Z,14.93
2019-03-11T14:06:43.721Z,21.52
2019-03-11T14:09:21.915Z,18.80
2019-03-11T14:11:47.007Z,17.17
2019-03-11T14:16:56.982Z,15.65
2019-03-11T14:19:29.710Z,12.20
2019-03-11T14:22:00.564Z,11.15
2019-03-11T14:24:31.114Z,11.73
2019-03-11T14:27:01.626Z,18.62
2019-03-11T14:29:33.899Z,16.50
2019-03-11T14:32:10.586Z,15.38
2019-03-11T14:37:14.057Z,15.32
2019-03-11T14:39:51.656Z,18.20
2019-03-11T14:42:48.744Z,16.75
2019-03-11T14:45:19.344Z,11.20
2019-03-11T14:48:10.560Z,12.63
2019-03-11T14:50:45.431Z,13.78
2019-03-11T14:53:17.697Z,15.10
2019-03-11T14:55:52.533Z,10.80
2019-03-11T15:01:30.832Z,12.13
2019-03-11T15:06:46.659Z,13.15
2019-03-11T15:09:17.744Z,10.35
2019-03-11T15:12:03.801Z,8.95
2019-03-11T15:14:23.752Z,7.67
2019-03-11T15:16:54.037Z,9.63
2019-03-11T15:19:24.640Z,13.83
2019-03-11T15:21:55.168Z,10.43
2019-03-11T15:24:25.656Z,6.78
2019-03-11T15:26:56.112Z,7.05
2019-03-11T15:29:26.536Z,9.83
2019-03-11T15:31:57.644Z,8.25
2019-03-11T15:34:28.102Z,8.05
2019-03-11T15:36:58.526Z,7.35
2019-03-11T15:39:28.974Z,8.95
2019-03-11T15:41:59.280Z,10.13
2019-03-11T15:44:29.857Z,9.40
2019-03-11T15:47:00.198Z,7.17
2019-03-11T15:49:30.566Z,7.97
2019-03-11T15:52:00.967Z,10.60
2019-03-11T15:54:31.472Z,8.13
2019-03-11T15:57:02.020Z,10.05
2019-03-11T15:59:32.491Z,8.13
2019-03-11T16:02:03.114Z,5.65
2019-03-11T16:04:33.449Z,11.15
2019-03-11T16:07:09.711Z,6.87
2019-03-11T16:09:40.008Z,13.58
2019-03-11T16:12:10.301Z,11.12
2019-03-11T16:14:59.740Z,11.90
2019-03-11T16:17:30.064Z,7.95
2019-03-11T16:20:00.454Z,7.35
2019-03-11T16:22:30.678Z,7.40
2019-03-11T16:25:01.113Z,6.25
2019-03-11T16:27:31.717Z,8.53
2019-03-11T16:30:26.191Z,10.00
2019-03-11T16:33:24.016Z,6.78
2019-03-11T16:35:35.494Z,6.12
2019-03-11T16:38:14.144Z,7.85
2019-03-11T16:43:20.715Z,7.47
2019-03-11T16:48:31.107Z,6.80
2019-03-11T16:53:52.928Z,8.90
2019-03-11T16:56:15.214Z,10.80
2019-03-11T17:01:17.210Z,6.60
2019-03-11T17:04:05.983Z,8.23
2019-03-11T17:06:36.325Z,5.78
2019-03-11T17:09:07.303Z,4.12
2019-03-11T17:11:39.308Z,4.60
2019-03-11T17:14:09.754Z,5.70
2019-03-11T17:16:40.079Z,7.55
2019-03-11T17:19:10.458Z,8.00
2019-03-11T17:21:40.742Z,6.50
2019-03-11T17:24:11.138Z,6.28
2019-03-11T17:26:42.561Z,6.50
2019-03-11T17:29:12.973Z,6.62
2019-03-11T17:31:43.300Z,8.93
2019-03-11T17:34:13.615Z,4.33
2019-03-11T17:36:44.165Z,6.37
2019-03-11T17:39:14.606Z,5.80
2019-03-11T17:41:44.964Z,6.92
2019-03-11T17:44:15.437Z,5.55
2019-03-11T17:46:45.855Z,8.63
2019-03-11T17:49:16.314Z,9.55
2019-03-11T17:51:46.859Z,10.28
2019-03-11T17:54:17.375Z,8.28
2019-03-11T17:56:47.815Z,14.15
2019-03-11T17:59:18.211Z,12.47
2019-03-11T18:01:48.712Z,10.80
2019-03-11T18:04:19.142Z,11.00
2019-03-11T18:06:49.596Z,9.55
2019-03-11T18:09:20.025Z,8.30
2019-03-11T18:11:50.424Z,12.50
2019-03-11T18:14:20.862Z,7.58
2019-03-11T18:16:51.267Z,10.23
2019-03-11T18:19:21.622Z,8.88
2019-03-11T18:21:51.996Z,8.78
2019-03-11T18:24:25.279Z,8.00
2019-03-11T18:26:55.589Z,7.42
2019-03-11T18:29:28.270Z,7.60
2019-03-11T18:32:02.227Z,9.23
2019-03-11T18:34:31.882Z,11.03
2019-03-11T18:37:02.329Z,10.63
2019-03-11T18:39:35.505Z,7.28
2019-03-11T18:42:05.886Z,8.95
2019-03-11T18:44:36.229Z,6.58
2019-03-11T18:47:06.588Z,6.17
2019-03-11T18:49:36.918Z,7.08
2019-03-11T18:52:11.154Z,9.73
2019-03-11T18:54:41.527Z,5.65
2019-03-11T18:57:11.859Z,8.85
2019-03-11T18:59:42.339Z,6.08
2019-03-11T19:02:12.646Z,7.15
2019-03-11T19:04:43.063Z,6.20
2019-03-11T19:07:13.533Z,7.80
2019-03-11T19:09:44.000Z,8.25
2019-03-11T19:12:14.515Z,6.85
2019-03-11T19:14:46.694Z,7.03
2019-03-11T19:17:17.196Z,6.35
2019-03-11T19:19:47.600Z,11.10
2019-03-11T19:22:17.867Z,8.48
2019-03-11T19:24:48.547Z,7.15
2019-03-11T19:27:18.953Z,9.75
2019-03-11T19:29:49.231Z,9.48
2019-03-11T19:32:19.658Z,9.93
2019-03-11T19:34:49.949Z,9.50
2019-03-11T19:37:20.554Z,9.48
2019-03-11T19:39:50.878Z,10.03
2019-03-11T19:42:21.340Z,11.45
2019-03-11T19:44:51.631Z,9.80
2019-03-11T19:47:21.931Z,9.35
2019-03-11T19:49:52.225Z,14.00
2019-03-11T19:52:22.508Z,11.53
2019-03-11T19:54:52.835Z,12.23
2019-03-11T19:57:23.246Z,9.53
2019-03-11T19:59:53.780Z,11.53
2019-03-11T20:02:24.488Z,13.43
2019-03-11T20:04:54.930Z,14.25
2019-03-11T20:07:25.236Z,11.28
2019-03-11T20:09:55.518Z,17.12
2019-03-11T20:12:26.066Z,10.28
2019-03-11T20:14:59.523Z,11.28
2019-03-11T20:17:29.956Z,13.78
2019-03-11T20:20:01.428Z,12.58
2019-03-11T20:22:32.243Z,14.90
2019-03-11T20:25:02.623Z,11.48
2019-03-11T20:27:33.170Z,16.23
2019-03-11T20:30:04.999Z,10.30
2019-03-11T20:32:36.593Z,11.75
2019-03-11T20:35:07.172Z,15.68
2019-03-11T20:37:37.480Z,13.20
2019-03-11T20:40:07.968Z,13.45
2019-03-11T20:42:38.403Z,14.13
2019-03-11T20:45:10.326Z,12.40
2019-03-11T20:47:40.621Z,11.57
2019-03-11T20:50:11.609Z,10.60
2019-03-11T20:52:41.954Z,11.08
2019-03-11T20:55:12.752Z,11.85
2019-03-11T20:57:43.179Z,14.03
2019-03-11T21:00:15.671Z,12.95
2019-03-11T21:02:46.282Z,9.48
2019-03-11T21:05:17.557Z,11.83
2019-03-11T21:07:47.962Z,12.93
2019-03-11T21:10:18.384Z,10.63
2019-03-11T21:12:48.901Z,16.42
2019-03-11T21:15:19.194Z,11.03
2019-03-11T21:17:49.675Z,13.18
2019-03-11T21:20:19.883Z,13.83
2019-03-11T21:22:50.231Z,13.90
2019-03-11T21:25:20.613Z,13.15
2019-03-11T21:27:51.176Z,12.58
2019-03-11T21:30:22.837Z,14.35
2019-03-11T21:32:53.308Z,11.55
2019-03-11T21:35:23.760Z,12.75
2019-03-11T21:37:54.108Z,11.88
2019-03-11T21:40:24.479Z,11.90
2019-03-11T21:42:55.066Z,10.58
2019-03-11T21:45:33.981Z,12.60
2019-03-11T21:47:57.554Z,13.18
2019-03-11T21:52:58.653Z,12.58
2019-03-11T21:55:28.940Z,12.98
2019-03-11T21:58:12.257Z,12.10
2019-03-11T22:00:35.087Z,11.73
2019-03-11T22:03:03.181Z,14.15
2019-03-11T22:05:33.571Z,10.90
2019-03-11T22:08:05.008Z,13.25
2019-03-11T22:10:35.220Z,9.95
2019-03-11T22:13:05.623Z,11.20
2019-03-11T22:15:35.955Z,13.28
2019-03-11T22:18:06.281Z,11.00
2019-03-11T22:20:36.623Z,9.55
2019-03-11T22:23:07.012Z,12.45
2019-03-11T22:25:37.323Z,11.03
2019-03-11T22:28:08.624Z,14.40
2019-03-11T22:30:38.967Z,10.93
2019-03-11T22:33:09.224Z,10.32
2019-03-11T22:35:39.548Z,10.78
2019-03-11T22:38:09.881Z,12.00
2019-03-11T22:40:40.065Z,10.63
2019-03-11T22:43:10.401Z,10.25
2019-03-11T22:45:40.683Z,8.60
2019-03-11T22:48:11.054Z,10.30
2019-03-11T22:50:41.278Z,10.70
2019-03-11T22:53:11.650Z,10.03
2019-03-11T22:55:42.085Z,10.23
2019-03-11T22:58:12.436Z,11.15
2019-03-11T23:01:00.803Z,9.73
2019-03-11T23:03:32.720Z,12.75
2019-03-11T23:06:03.096Z,9.33
2019-03-11T23:08:33.546Z,11.38
2019-03-11T23:11:03.870Z,9.88
2019-03-11T23:13:34.149Z,9.05
2019-03-11T23:16:04.531Z,10.82
2019-03-11T23:18:35.006Z,13.03
2019-03-11T23:21:05.335Z,12.00
2019-03-11T23:23:35.656Z,10.20
2019-03-11T23:26:06.029Z,10.90
2019-03-11T23:28:36.434Z,10.93
2019-03-11T23:31:06.780Z,10.43
2019-03-11T23:33:37.145Z,10.10
2019-03-11T23:36:07.571Z,10.08
2019-03-11T23:38:37.980Z,10.75
2019-03-11T23:41:08.366Z,7.90
2019-03-11T23:43:38.747Z,10.78
2019-03-11T23:46:09.153Z,11.50
2019-03-11T23:48:39.555Z,9.68
2019-03-11T23:51:13.625Z,11.10
2019-03-11T23:53:43.951Z,9.83
2019-03-11T23:56:14.339Z,8.78
2019-03-11T23:58:44.689Z,8.00
